Time;durP1;ratioP1;P1;durP2;ratioP2;P2;SDS_P1;SDS_P2;PMS_P1;PMS_P2;Temp;Humidity;BMP_temperature;BMP_pressure;BME280_temperature;BME280_humidity;BME280_pressure;Samples;Min_cycle;Max_cycle;Signal;HPM_P1;HPM_P2
2021/03/07 00:02:15;;;;;;;0.90;0.70;;;;;;;;;;5022091;28;20402;-71
2021/03/07 00:04:41;;;;;;;0.70;0.50;;;;;;;;;;5028626;28;20906;-71
2021/03/07 00:07:07;;;;;;;0.70;0.50;;;;;;;;;;5013206;28;20440;-71
2021/03/07 00:09:33;;;;;;;0.70;0.50;;;;;;;;;;5024594;28;20402;-70
2021/03/07 00:11:59;;;;;;;0.70;0.50;;;;;;;;;;5032172;28;20488;-70
2021/03/07 00:14:25;;;;;;;0.70;0.50;;;;;;;;;;5030853;28;20405;-71
2021/03/07 00:16:51;;;;;;;0.70;0.50;;;;;;;;;;5030151;28;20453;-71
2021/03/07 00:19:17;;;;;;;0.73;0.57;;;;;;;;;;5031860;28;20412;-70
2021/03/07 00:21:43;;;;;;;1.37;0.63;;;;;;;;;;5030908;28;20470;-71
2021/03/07 00:24:09;;;;;;;3.23;0.73;;;;;;;;;;5029590;28;20463;-71
2021/03/07 00:26:35;;;;;;;2.10;1.10;;;;;;;;;;5031441;28;20427;-71
2021/03/07 00:29:01;;;;;;;0.87;0.87;;;;;;;;;;5030459;28;20838;-70
2021/03/07 00:31:27;;;;;;;1.63;0.73;;;;;;;;;;5016862;28;20423;-71
2021/03/07 00:33:53;;;;;;;0.70;0.47;;;;;;;;;;5010660;28;20414;-71
2021/03/07 00:36:19;;;;;;;1.00;0.70;;;;;;;;;;5007186;28;20441;-71
2021/03/07 00:38:44;;;;;;;0.70;0.50;;;;;;;;;;5011468;28;20882;-71
2021/03/07 00:41:11;;;;;;;0.70;0.60;;;;;;;;;;5010285;28;20412;-70
2021/03/07 00:43:37;;;;;;;0.70;0.40;;;;;;;;;;5004088;28;20430;-70
2021/03/07 00:46:04;;;;;;;0.70;0.50;;;;;;;;;;5006306;28;20407;-70
2021/03/07 00:48:30;;;;;;;0.90;0.70;;;;;;;;;;5011621;28;20438;-70
2021/03/07 00:50:56;;;;;;;0.70;0.60;;;;;;;;;;5011580;28;20983;-70
2021/03/07 00:53:22;;;;;;;2.10;0.63;;;;;;;;;;5011351;28;20442;-71
2021/03/07 00:55:48;;;;;;;1.70;0.73;;;;;;;;;;5011298;28;20402;-70
2021/03/07 00:58:13;;;;;;;0.70;0.50;;;;;;;;;;5011346;28;20470;-70
2021/03/07 01:00:41;;;;;;;0.70;0.50;;;;;;;;;;5011195;28;20788;-70
2021/03/07 01:03:07;;;;;;;0.70;0.50;;;;;;;;;;5010837;28;20413;-70
2021/03/07 01:05:33;;;;;;;0.70;0.50;;;;;;;;;;5011722;28;20403;-70
2021/03/07 01:07:59;;;;;;;0.70;0.50;;;;;;;;;;5011104;28;20430;-70
2021/03/07 01:10:35;;;;;;;0.70;0.40;;;;;;;;;;5011223;28;20820;-70
2021/03/07 01:13:01;;;;;;;0.70;0.50;;;;;;;;;;5010623;28;20441;-70
2021/03/07 01:15:28;;;;;;;0.70;0.50;;;;;;;;;;5011075;28;20832;-70
2021/03/07 01:17:54;;;;;;;0.80;0.63;;;;;;;;;;5010407;28;20549;-70
2021/03/07 01:20:21;;;;;;;2.50;1.37;;;;;;;;;;5010946;28;20407;-71
2021/03/07 01:22:47;;;;;;;0.70;0.50;;;;;;;;;;5025628;28;20410;-71
2021/03/07 01:25:13;;;;;;;0.80;0.70;;;;;;;;;;5010418;28;20461;-71
2021/03/07 01:27:39;;;;;;;0.70;0.50;;;;;;;;;;5011065;28;20956;-70
2021/03/07 01:30:06;;;;;;;1.10;0.93;;;;;;;;;;5010706;28;20405;-71
2021/03/07 01:32:32;;;;;;;0.70;0.50;;;;;;;;;;5011029;28;21048;-71
2021/03/07 01:34:58;;;;;;;0.70;0.50;;;;;;;;;;5010233;28;20488;-71
2021/03/07 01:37:24;;;;;;;0.70;0.50;;;;;;;;;;5010759;28;20532;-71
2021/03/07 01:39:50;;;;;;;0.90;0.50;;;;;;;;;;5010617;28;20899;-70
2021/03/07 01:42:15;;;;;;;0.70;0.50;;;;;;;;;;5011132;28;20437;-71
2021/03/07 01:44:41;;;;;;;0.70;0.40;;;;;;;;;;5010092;28;20404;-71
2021/03/07 01:47:07;;;;;;;0.80;0.60;;;;;;;;;;5023848;28;21155;-71
2021/03/07 01:49:34;;;;;;;0.70;0.43;;;;;;;;;;5029815;28;20476;-71
2021/03/07 01:52:00;;;;;;;0.70;0.50;;;;;;;;;;5026648;28;20490;-71
2021/03/07 01:54:26;;;;;;;0.90;0.60;;;;;;;;;;5028697;28;20405;-70
2021/03/07 01:56:53;;;;;;;0.70;0.50;;;;;;;;;;5024931;28;20466;-70
2021/03/07 01:59:23;;;;;;;0.70;0.50;;;;;;;;;;5030263;28;20489;-71
2021/03/07 02:01:49;;;;;;;1.00;0.67;;;;;;;;;;5030252;28;20902;-71
2021/03/07 02:04:16;;;;;;;0.70;0.50;;;;;;;;;;5029925;28;20400;-70
2021/03/07 02:06:42;;;;;;;0.70;0.50;;;;;;;;;;5029996;28;20494;-70
2021/03/07 02:09:08;;;;;;;0.70;0.50;;;;;;;;;;5030366;28;20785;-70
2021/03/07 02:11:34;;;;;;;0.70;0.50;;;;;;;;;;5028514;28;20413;-70
2021/03/07 02:14:01;;;;;;;0.77;0.50;;;;;;;;;;5029769;28;20724;-71
2021/03/07 02:16:27;;;;;;;0.70;0.50;;;;;;;;;;5029928;28;20585;-70
2021/03/07 02:18:53;;;;;;;2.93;1.70;;;;;;;;;;5030256;28;20405;-70
2021/03/07 02:21:24;;;;;;;1.00;0.83;;;;;;;;;;5030170;28;20485;-70
2021/03/07 02:24:07;;;;;;;0.70;0.50;;;;;;;;;;5029471;28;20409;-70
2021/03/07 02:26:34;;;;;;;0.70;0.50;;;;;;;;;;5030343;28;20421;-70
2021/03/07 02:29:00;;;;;;;0.93;0.83;;;;;;;;;;5029332;28;20405;-70
2021/03/07 02:31:27;;;;;;;0.70;0.50;;;;;;;;;;5015417;28;20465;-69
2021/03/07 02:34:19;;;;;;;0.80;0.50;;;;;;;;;;5009779;28;20429;-70
2021/03/07 02:36:49;;;;;;;0.70;0.50;;;;;;;;;;5008236;28;20472;-70
2021/03/07 02:39:17;;;;;;;0.70;0.50;;;;;;;;;;5010342;28;20504;-70
2021/03/07 02:41:44;;;;;;;0.70;0.50;;;;;;;;;;5009563;28;20463;-71
2021/03/07 02:44:13;;;;;;;0.80;0.60;;;;;;;;;;5018097;28;20428;-71
2021/03/07 02:46:40;;;;;;;0.70;0.50;;;;;;;;;;5013349;28;20427;-71
2021/03/07 02:49:07;;;;;;;0.70;0.40;;;;;;;;;;5001771;28;20410;-70
2021/03/07 02:51:34;;;;;;;0.70;0.50;;;;;;;;;;4994147;28;20418;-71
2021/03/07 02:54:05;;;;;;;0.70;0.50;;;;;;;;;;4994137;28;20784;-71
2021/03/07 02:56:32;;;;;;;0.70;0.50;;;;;;;;;;5011689;28;20438;-70
2021/03/07 02:59:05;;;;;;;0.80;0.50;;;;;;;;;;5010711;28;20469;-70
2021/03/07 03:01:31;;;;;;;0.70;0.50;;;;;;;;;;5013807;28;20534;-70
2021/03/07 03:03:57;;;;;;;0.80;0.70;;;;;;;;;;5012992;28;20850;-70
2021/03/07 03:06:23;;;;;;;1.20;0.50;;;;;;;;;;5013432;28;20460;-71
2021/03/07 03:08:51;;;;;;;0.70;0.50;;;;;;;;;;5012712;28;20401;-70
2021/03/07 03:11:18;;;;;;;0.70;0.50;;;;;;;;;;5013512;28;20407;-71
2021/03/07 03:13:46;;;;;;;1.53;1.43;;;;;;;;;;5013118;28;20409;-70
2021/03/07 03:16:13;;;;;;;0.70;0.50;;;;;;;;;;5013303;28;20410;-68
2021/03/07 03:18:40;;;;;;;0.70;0.50;;;;;;;;;;5012520;28;20519;-70
2021/03/07 03:21:09;;;;;;;0.70;0.60;;;;;;;;;;5012379;28;20417;-70
2021/03/07 03:23:35;;;;;;;0.70;0.50;;;;;;;;;;5012970;28;20409;-70
2021/03/07 03:26:01;;;;;;;0.70;0.50;;;;;;;;;;5011535;28;20412;-70
2021/03/07 03:28:27;;;;;;;0.80;0.60;;;;;;;;;;5012859;28;20438;-70
2021/03/07 03:30:54;;;;;;;0.70;0.60;;;;;;;;;;5013053;28;20907;-70
2021/03/07 03:33:20;;;;;;;0.70;0.50;;;;;;;;;;5012669;28;20760;-70
2021/03/07 03:35:46;;;;;;;0.70;0.50;;;;;;;;;;5013034;28;20734;-70
2021/03/07 03:38:12;;;;;;;0.70;0.50;;;;;;;;;;5012725;28;20468;-70
2021/03/07 03:40:39;;;;;;;0.90;0.63;;;;;;;;;;5012773;28;20908;-70
2021/03/07 03:43:09;;;;;;;0.70;0.50;;;;;;;;;;5011694;28;20406;-69
2021/03/07 03:45:36;;;;;;;0.70;0.50;;;;;;;;;;5012048;28;20505;-69
2021/03/07 03:48:05;;;;;;;0.70;0.53;;;;;;;;;;5011699;28;20795;-70
2021/03/07 03:50:31;;;;;;;0.70;0.50;;;;;;;;;;5011189;28;20786;-70
2021/03/07 03:53:00;;;;;;;0.80;0.60;;;;;;;;;;5012451;28;20409;-68
2021/03/07 03:55:27;;;;;;;2.10;0.70;;;;;;;;;;5012829;28;20418;-70
2021/03/07 03:57:56;;;;;;;0.70;0.50;;;;;;;;;;5012518;28;20463;-70
2021/03/07 04:00:24;;;;;;;1.00;0.60;;;;;;;;;;5012652;28;20406;-70
2021/03/07 04:02:52;;;;;;;0.70;0.50;;;;;;;;;;5012339;28;20484;-72
2021/03/07 04:05:19;;;;;;;0.70;0.50;;;;;;;;;;5012563;28;20413;-71
2021/03/07 04:07:46;;;;;;;1.57;0.80;;;;;;;;;;5012159;28;20425;-71
2021/03/07 04:10:15;;;;;;;0.70;0.50;;;;;;;;;;5013024;28;20420;-69
2021/03/07 04:12:41;;;;;;;0.70;0.50;;;;;;;;;;5013695;28;20606;-71
2021/03/07 04:15:08;;;;;;;0.70;0.57;;;;;;;;;;5004293;28;20994;-70
2021/03/07 04:17:35;;;;;;;0.90;0.70;;;;;;;;;;5003462;28;20472;-69
2021/03/07 04:20:02;;;;;;;0.90;0.50;;;;;;;;;;5001834;28;20401;-70
2021/03/07 04:22:28;;;;;;;0.80;0.60;;;;;;;;;;5002719;28;20754;-70
2021/03/07 04:24:54;;;;;;;0.80;0.70;;;;;;;;;;5002876;28;20414;-70
2021/03/07 04:27:22;;;;;;;0.70;0.60;;;;;;;;;;5003378;28;20437;-69
2021/03/07 04:29:49;;;;;;;0.70;0.50;;;;;;;;;;5011836;28;21050;-70
2021/03/07 04:32:15;;;;;;;0.80;0.60;;;;;;;;;;5012225;28;20410;-69
2021/03/07 04:34:41;;;;;;;0.70;0.50;;;;;;;;;;5011657;28;20898;-69
2021/03/07 04:37:07;;;;;;;0.70;0.50;;;;;;;;;;5011448;28;20457;-70
2021/03/07 04:39:33;;;;;;;0.70;0.50;;;;;;;;;;4999435;28;20907;-70
2021/03/07 04:42:00;;;;;;;0.70;0.50;;;;;;;;;;4992410;28;20406;-70
2021/03/07 04:44:26;;;;;;;1.63;1.17;;;;;;;;;;4991363;28;20415;-70
2021/03/07 04:46:52;;;;;;;1.00;0.70;;;;;;;;;;4991896;28;20807;-70
2021/03/07 04:49:18;;;;;;;0.70;0.50;;;;;;;;;;4992485;28;20839;-70
2021/03/07 04:51:44;;;;;;;0.70;0.50;;;;;;;;;;4992031;28;20493;-70
2021/03/07 04:54:10;;;;;;;0.70;0.50;;;;;;;;;;4991701;28;20414;-70
2021/03/07 04:59:10;;;;;;;0.90;0.70;;;;;;;;;;5077111;28;21036;-70
2021/03/07 05:01:36;;;;;;;0.70;0.50;;;;;;;;;;5084639;28;20471;-70
2021/03/07 05:04:05;;;;;;;0.70;0.50;;;;;;;;;;5087671;28;20744;-70
2021/03/07 05:06:35;;;;;;;1.00;0.80;;;;;;;;;;5082162;28;20407;-69
2021/03/07 05:09:01;;;;;;;0.80;0.50;;;;;;;;;;5069736;28;20400;-70
2021/03/07 05:11:27;;;;;;;0.83;0.60;;;;;;;;;;5070344;28;20425;-71
2021/03/07 05:13:53;;;;;;;2.07;1.07;;;;;;;;;;5069592;28;20401;-71
2021/03/07 05:16:20;;;;;;;0.70;0.50;;;;;;;;;;5070179;28;20398;-69
2021/03/07 05:18:46;;;;;;;0.80;0.60;;;;;;;;;;5070097;28;20421;-71
2021/03/07 05:21:12;;;;;;;0.70;0.50;;;;;;;;;;5067226;28;20403;-70
2021/03/07 05:23:38;;;;;;;1.27;0.80;;;;;;;;;;5062371;28;20394;-71
2021/03/07 05:26:05;;;;;;;0.90;0.70;;;;;;;;;;5059752;28;20413;-70
2021/03/07 05:28:30;;;;;;;0.77;0.70;;;;;;;;;;5060325;28;20471;-70
2021/03/07 05:30:57;;;;;;;0.80;0.60;;;;;;;;;;5045797;28;20886;-71
2021/03/07 05:33:23;;;;;;;0.70;0.50;;;;;;;;;;5059397;28;20486;-71
2021/03/07 05:35:49;;;;;;;0.70;0.50;;;;;;;;;;5058721;28;20415;-70
2021/03/07 05:38:15;;;;;;;0.70;0.60;;;;;;;;;;5061087;28;20447;-70
2021/03/07 05:40:41;;;;;;;0.70;0.53;;;;;;;;;;5058507;28;20410;-72
2021/03/07 05:43:07;;;;;;;0.70;0.50;;;;;;;;;;5058305;28;20434;-71
2021/03/07 05:45:33;;;;;;;0.80;0.60;;;;;;;;;;5060275;28;20408;-72
2021/03/07 05:47:59;;;;;;;0.80;0.60;;;;;;;;;;5058237;28;20420;-71
2021/03/07 05:50:26;;;;;;;0.90;0.80;;;;;;;;;;5058979;28;20414;-69
2021/03/07 05:52:53;;;;;;;0.70;0.50;;;;;;;;;;5059806;28;20535;-69
2021/03/07 05:55:20;;;;;;;0.80;0.73;;;;;;;;;;5041710;28;20416;-70
2021/03/07 05:57:47;;;;;;;1.10;0.73;;;;;;;;;;5059239;28;20455;-71
2021/03/07 06:00:14;;;;;;;1.40;0.97;;;;;;;;;;5060419;28;20462;-69
2021/03/07 06:02:40;;;;;;;0.70;0.50;;;;;;;;;;5063004;28;20441;-71
2021/03/07 06:05:06;;;;;;;0.70;0.50;;;;;;;;;;5059618;28;20408;-70
2021/03/07 06:07:32;;;;;;;0.70;0.60;;;;;;;;;;5058299;28;20424;-70
2021/03/07 06:10:18;;;;;;;0.70;0.50;;;;;;;;;;5064256;28;20408;-70
2021/03/07 06:12:55;;;;;;;0.80;0.63;;;;;;;;;;5058824;28;20883;-71
2021/03/07 06:15:21;;;;;;;0.70;0.60;;;;;;;;;;5058696;28;20409;-70
2021/03/07 06:17:47;;;;;;;0.70;0.50;;;;;;;;;;5056106;28;20462;-71
2021/03/07 06:20:20;;;;;;;0.70;0.60;;;;;;;;;;5062060;28;20860;-69
2021/03/07 06:23:05;;;;;;;1.23;1.00;;;;;;;;;;5066921;28;20899;-70
2021/03/07 06:25:31;;;;;;;1.20;0.80;;;;;;;;;;5063789;28;20397;-69
2021/03/07 06:27:58;;;;;;;0.70;0.50;;;;;;;;;;5062104;28;20412;-70
2021/03/07 06:30:30;;;;;;;0.70;0.60;;;;;;;;;;5065245;28;20402;-70
2021/03/07 06:32:58;;;;;;;0.70;0.50;;;;;;;;;;5063472;28;20880;-69
2021/03/07 06:35:27;;;;;;;1.53;1.00;;;;;;;;;;5062896;28;20972;-70
2021/03/07 06:37:59;;;;;;;1.57;0.60;;;;;;;;;;5063139;28;20448;-69
2021/03/07 06:40:26;;;;;;;1.13;1.03;;;;;;;;;;5062581;28;20874;-70
2021/03/07 06:42:52;;;;;;;0.90;0.60;;;;;;;;;;5063383;28;20817;-70
2021/03/07 06:45:18;;;;;;;0.70;0.50;;;;;;;;;;5061496;28;20400;-71
2021/03/07 06:48:02;;;;;;;3.10;0.87;;;;;;;;;;5063062;28;20423;-70
2021/03/07 06:50:28;;;;;;;0.70;0.50;;;;;;;;;;5068917;28;20518;-69
2021/03/07 06:52:54;;;;;;;0.80;0.80;;;;;;;;;;5066653;28;20494;-69
2021/03/07 06:55:21;;;;;;;2.80;2.60;;;;;;;;;;5063185;28;20453;-69
2021/03/07 06:57:48;;;;;;;0.70;0.50;;;;;;;;;;5070305;28;20458;-70
2021/03/07 07:00:14;;;;;;;1.40;1.30;;;;;;;;;;5062177;28;20396;-70
2021/03/07 07:02:40;;;;;;;0.70;0.50;;;;;;;;;;5061902;28;20487;-70
2021/03/07 07:05:06;;;;;;;0.90;0.90;;;;;;;;;;5062683;28;20507;-70
2021/03/07 07:07:32;;;;;;;1.70;1.60;;;;;;;;;;5062854;28;20793;-70
2021/03/07 07:10:00;;;;;;;0.70;0.50;;;;;;;;;;5062966;28;20412;-70
2021/03/07 07:12:27;;;;;;;0.70;0.60;;;;;;;;;;5063399;28;20427;-70
2021/03/07 07:15:12;;;;;;;3.63;0.70;;;;;;;;;;5064286;28;20428;-68
2021/03/07 07:17:38;;;;;;;0.70;0.50;;;;;;;;;;5064536;28;20497;-68
2021/03/07 07:20:06;;;;;;;0.80;0.70;;;;;;;;;;5066149;28;20429;-68
2021/03/07 07:22:32;;;;;;;0.70;0.50;;;;;;;;;;5064062;28;20476;-66
2021/03/07 07:24:58;;;;;;;0.70;0.50;;;;;;;;;;5065135;28;20427;-67
2021/03/07 07:27:24;;;;;;;0.70;0.50;;;;;;;;;;5050909;28;20553;-68
2021/03/07 07:29:50;;;;;;;0.70;0.50;;;;;;;;;;5053282;28;20429;-68
2021/03/07 07:32:18;;;;;;;0.70;0.50;;;;;;;;;;5070404;28;20776;-68
2021/03/07 07:35:13;;;;;;;5.57;1.37;;;;;;;;;;5066677;28;20424;-69
2021/03/07 07:37:51;;;;;;;0.70;0.50;;;;;;;;;;5051945;28;20552;-69
2021/03/07 07:40:17;;;;;;;0.70;0.50;;;;;;;;;;5059258;28;20411;-68
2021/03/07 07:42:55;;;;;;;1.00;0.80;;;;;;;;;;5054343;28;20398;-67
2021/03/07 07:45:22;;;;;;;1.47;1.03;;;;;;;;;;5061270;28;20647;-69
2021/03/07 07:47:49;;;;;;;0.70;0.50;;;;;;;;;;5064712;28;20450;-68
2021/03/07 07:50:30;;;;;;;0.70;0.50;;;;;;;;;;5061184;28;20428;-67
2021/03/07 07:52:57;;;;;;;1.70;1.60;;;;;;;;;;5064952;28;20410;-69
2021/03/07 07:55:49;;;;;;;0.97;0.90;;;;;;;;;;5063263;28;20500;-70
2021/03/07 07:58:34;;;;;;;0.70;0.40;;;;;;;;;;5054886;28;20459;-70
2021/03/07 08:01:00;;;;;;;1.27;0.70;;;;;;;;;;5065367;28;20404;-69
2021/03/07 08:03:30;;;;;;;0.70;0.57;;;;;;;;;;5060578;28;20394;-71
2021/03/07 08:05:56;;;;;;;0.80;0.60;;;;;;;;;;5057636;28;20441;-70
2021/03/07 08:08:30;;;;;;;1.40;1.30;;;;;;;;;;5056786;28;20499;-69
2021/03/07 08:10:56;;;;;;;0.70;0.50;;;;;;;;;;5060458;28;20933;-70
2021/03/07 08:13:27;;;;;;;1.87;1.77;;;;;;;;;;5065561;28;20415;-70
2021/03/07 08:15:54;;;;;;;0.70;0.50;;;;;;;;;;5060776;28;20439;-70
2021/03/07 08:18:21;;;;;;;0.70;0.50;;;;;;;;;;5061980;28;20464;-70
2021/03/07 08:20:47;;;;;;;0.77;0.60;;;;;;;;;;5064141;28;20780;-70
2021/03/07 08:23:14;;;;;;;0.70;0.53;;;;;;;;;;5058584;28;20413;-71
2021/03/07 08:25:48;;;;;;;0.77;0.70;;;;;;;;;;5062770;28;20782;-67
2021/03/07 08:28:27;;;;;;;0.70;0.60;;;;;;;;;;5061512;28;20430;-69
2021/03/07 08:30:54;;;;;;;0.70;0.50;;;;;;;;;;5071123;28;20406;-64
2021/03/07 08:33:27;;;;;;;0.70;0.60;;;;;;;;;;5052355;28;20891;-66
2021/03/07 08:36:08;;;;;;;0.90;0.60;;;;;;;;;;5064484;28;20407;-69
2021/03/07 08:38:34;;;;;;;0.70;0.50;;;;;;;;;;5061871;28;20455;-70
2021/03/07 08:41:00;;;;;;;1.00;0.83;;;;;;;;;;5043493;28;20413;-70
2021/03/07 08:43:26;;;;;;;30.30;16.83;;;;;;;;;;5067614;28;20486;-71
2021/03/07 08:46:08;;;;;;;42.63;13.40;;;;;;;;;;5066060;28;20440;-70
2021/03/07 08:48:35;;;;;;;1.10;0.70;;;;;;;;;;5063561;28;20520;-69
2021/03/07 08:51:01;;;;;;;0.70;0.50;;;;;;;;;;5070763;28;20413;-71
2021/03/07 08:53:28;;;;;;;0.70;0.50;;;;;;;;;;5061314;28;20540;-67
2021/03/07 08:55:54;;;;;;;0.70;0.50;;;;;;;;;;5067161;28;20777;-69
2021/03/07 08:58:21;;;;;;;0.70;0.50;;;;;;;;;;5065539;28;20469;-69
2021/03/07 09:00:50;;;;;;;0.70;0.60;;;;;;;;;;5067008;28;20411;-71
2021/03/07 09:03:17;;;;;;;0.70;0.40;;;;;;;;;;5063864;28;20432;-71
2021/03/07 09:05:44;;;;;;;0.70;0.50;;;;;;;;;;5063720;28;20414;-71
2021/03/07 09:08:10;;;;;;;2.03;1.37;;;;;;;;;;5059273;28;20421;-71
2021/03/07 09:10:38;;;;;;;0.70;0.40;;;;;;;;;;5063485;28;20480;-70
2021/03/07 09:13:19;;;;;;;0.70;0.40;;;;;;;;;;5062688;28;20791;-71
2021/03/07 09:15:52;;;;;;;4.60;0.80;;;;;;;;;;5064375;28;20941;-71
2021/03/07 09:18:24;;;;;;;0.70;0.50;;;;;;;;;;5061484;28;20821;-72
2021/03/07 09:20:55;;;;;;;0.97;0.67;;;;;;;;;;5061993;28;20405;-70
2021/03/07 09:23:27;;;;;;;0.80;0.60;;;;;;;;;;5063415;28;20964;-71
2021/03/07 09:25:53;;;;;;;0.70;0.50;;;;;;;;;;5064168;28;20891;-70
2021/03/07 09:28:32;;;;;;;0.80;0.60;;;;;;;;;;5061601;28;20419;-70
2021/03/07 09:31:02;;;;;;;1.20;0.70;;;;;;;;;;5061015;28;20398;-70
2021/03/07 09:33:29;;;;;;;1.00;0.90;;;;;;;;;;5058531;28;20979;-70
2021/03/07 09:36:05;;;;;;;0.70;0.50;;;;;;;;;;5060113;28;20569;-71
2021/03/07 09:39:03;;;;;;;0.70;0.40;;;;;;;;;;5059803;28;20454;-71
2021/03/07 09:41:40;;;;;;;0.90;0.60;;;;;;;;;;5019118;28;20405;-72
2021/03/07 09:44:07;;;;;;;1.43;1.07;;;;;;;;;;5061358;28;20916;-70
2021/03/07 09:46:33;;;;;;;0.80;0.67;;;;;;;;;;5061415;28;20764;-69
2021/03/07 09:49:01;;;;;;;0.70;0.50;;;;;;;;;;5060805;28;20412;-72
2021/03/07 09:51:28;;;;;;;0.83;0.83;;;;;;;;;;5056852;28;20398;-70
2021/03/07 09:53:55;;;;;;;2.30;0.73;;;;;;;;;;5062928;28;20411;-70
2021/03/07 09:56:31;;;;;;;0.70;0.50;;;;;;;;;;5064494;28;20420;-70
2021/03/07 09:59:19;;;;;;;2.60;1.10;;;;;;;;;;5062846;28;20432;-70
2021/03/07 10:01:45;;;;;;;0.80;0.60;;;;;;;;;;5064233;28;20391;-71
2021/03/07 10:04:26;;;;;;;0.70;0.50;;;;;;;;;;5062411;28;20406;-70
2021/03/07 10:06:53;;;;;;;0.70;0.50;;;;;;;;;;5062668;28;20402;-71
2021/03/07 10:09:18;;;;;;;0.70;0.50;;;;;;;;;;5064612;28;20398;-72
2021/03/07 10:11:55;;;;;;;1.20;0.50;;;;;;;;;;5063565;28;20845;-68
2021/03/07 10:14:24;;;;;;;0.90;0.67;;;;;;;;;;5062536;28;20401;-71
2021/03/07 10:16:51;;;;;;;0.70;0.50;;;;;;;;;;5045165;28;20418;-72
2021/03/07 10:19:18;;;;;;;0.70;0.50;;;;;;;;;;5064110;28;20631;-71
2021/03/07 10:21:45;;;;;;;2.07;0.87;;;;;;;;;;5059091;28;20429;-70
2021/03/07 10:24:13;;;;;;;0.80;0.70;;;;;;;;;;5065308;28;20417;-71
2021/03/07 10:26:40;;;;;;;0.70;0.50;;;;;;;;;;5061933;28;20412;-70
2021/03/07 10:29:19;;;;;;;1.47;0.60;;;;;;;;;;5053933;28;20462;-69
2021/03/07 10:32:01;;;;;;;0.70;0.50;;;;;;;;;;5068511;28;20458;-72
2021/03/07 10:34:37;;;;;;;1.57;1.07;;;;;;;;;;5059323;28;20400;-71
2021/03/07 10:37:04;;;;;;;0.70;0.53;;;;;;;;;;5072677;28;20466;-70
2021/03/07 10:39:29;;;;;;;0.70;0.50;;;;;;;;;;5069956;28;20416;-69
2021/03/07 10:42:08;;;;;;;0.70;0.50;;;;;;;;;;5056824;28;20422;-70
2021/03/07 10:44:34;;;;;;;0.70;0.50;;;;;;;;;;5066335;28;20870;-71
2021/03/07 10:47:13;;;;;;;1.43;1.33;;;;;;;;;;5068629;28;20940;-71
2021/03/07 10:49:39;;;;;;;0.70;0.60;;;;;;;;;;5064863;28;20420;-72
2021/03/07 10:52:05;;;;;;;0.80;0.50;;;;;;;;;;5054154;28;20412;-71
2021/03/07 10:54:31;;;;;;;0.70;0.50;;;;;;;;;;5052957;28;20410;-71
2021/03/07 10:56:57;;;;;;;0.80;0.60;;;;;;;;;;5059504;28;20547;-72
2021/03/07 10:59:24;;;;;;;0.80;0.60;;;;;;;;;;5083279;22;20529;-70
2021/03/07 11:01:50;;;;;;;0.70;0.50;;;;;;;;;;5080411;28;20461;-70
2021/03/07 11:04:16;;;;;;;0.70;0.50;;;;;;;;;;5081195;28;20426;-69
2021/03/07 11:06:42;;;;;;;0.70;0.50;;;;;;;;;;5070974;28;20423;-70
2021/03/07 11:09:08;;;;;;;0.80;0.70;;;;;;;;;;5080466;28;20902;-69
2021/03/07 11:11:34;;;;;;;0.80;0.70;;;;;;;;;;5081430;28;20479;-69
2021/03/07 11:14:01;;;;;;;0.70;0.50;;;;;;;;;;5051492;28;20514;-70
2021/03/07 11:16:26;;;;;;;0.70;0.53;;;;;;;;;;5074044;28;20422;-69
2021/03/07 11:18:53;;;;;;;0.90;0.60;;;;;;;;;;5069524;28;20613;-69
2021/03/07 11:21:19;;;;;;;1.73;1.47;;;;;;;;;;5075965;28;20426;-71
2021/03/07 11:23:45;;;;;;;1.10;0.93;;;;;;;;;;5061410;28;20406;-69
2021/03/07 11:26:11;;;;;;;0.80;0.50;;;;;;;;;;5073666;28;20930;-69
2021/03/07 11:28:37;;;;;;;0.90;0.70;;;;;;;;;;5072514;28;20439;-67
2021/03/07 11:31:03;;;;;;;0.80;0.60;;;;;;;;;;5072428;28;20414;-69
2021/03/07 11:33:29;;;;;;;0.80;0.70;;;;;;;;;;5083706;28;21170;-69
2021/03/07 11:35:55;;;;;;;0.80;0.60;;;;;;;;;;5059295;28;20461;-69
2021/03/07 11:38:21;;;;;;;0.77;0.67;;;;;;;;;;5073428;28;20836;-70
2021/03/07 11:40:46;;;;;;;0.80;0.70;;;;;;;;;;5079632;28;20398;-69
2021/03/07 11:43:13;;;;;;;0.70;0.50;;;;;;;;;;5076240;28;20468;-70
2021/03/07 11:45:38;;;;;;;0.80;0.50;;;;;;;;;;5077196;28;20410;-68
2021/03/07 11:48:05;;;;;;;0.70;0.50;;;;;;;;;;5078908;28;20508;-69
2021/03/07 11:50:31;;;;;;;0.80;0.60;;;;;;;;;;5068650;28;20410;-69
2021/03/07 11:52:56;;;;;;;1.63;1.13;;;;;;;;;;5071737;28;20907;-67
2021/03/07 11:55:22;;;;;;;0.80;0.73;;;;;;;;;;5068952;28;20415;-68
2021/03/07 11:57:48;;;;;;;0.70;0.50;;;;;;;;;;5052157;28;20462;-70
2021/03/07 12:00:15;;;;;;;0.70;0.50;;;;;;;;;;5048615;28;20423;-68
2021/03/07 12:02:40;;;;;;;1.33;0.97;;;;;;;;;;5069987;28;20488;-69
2021/03/07 12:05:07;;;;;;;1.10;0.70;;;;;;;;;;5076425;28;20487;-69
2021/03/07 12:07:33;;;;;;;1.03;0.83;;;;;;;;;;5077351;28;20398;-69
2021/03/07 12:09:59;;;;;;;0.80;0.60;;;;;;;;;;5082088;28;20412;-69
2021/03/07 12:12:25;;;;;;;1.57;0.60;;;;;;;;;;5079050;28;20805;-69
2021/03/07 12:14:51;;;;;;;0.80;0.60;;;;;;;;;;5075475;28;20413;-70
2021/03/07 12:17:17;;;;;;;1.17;0.87;;;;;;;;;;5074460;28;20444;-68
2021/03/07 12:19:43;;;;;;;2.33;1.20;;;;;;;;;;5081669;28;20513;-68
2021/03/07 12:22:09;;;;;;;7.00;2.87;;;;;;;;;;5080581;28;20806;-69
2021/03/07 12:24:35;;;;;;;1.03;0.93;;;;;;;;;;5077046;28;20397;-69
2021/03/07 12:27:07;;;;;;;0.80;0.60;;;;;;;;;;5068007;28;20825;-70
2021/03/07 12:29:34;;;;;;;0.90;0.67;;;;;;;;;;5078134;28;20449;-70
2021/03/07 12:32:00;;;;;;;1.67;0.70;;;;;;;;;;5076698;28;20481;-69
2021/03/07 12:34:26;;;;;;;1.40;1.23;;;;;;;;;;5071516;28;20441;-68
2021/03/07 12:36:52;;;;;;;3.47;3.27;;;;;;;;;;5077842;28;21085;-68
2021/03/07 12:39:18;;;;;;;0.80;0.50;;;;;;;;;;5078112;28;20419;-68
2021/03/07 12:41:44;;;;;;;1.57;1.47;;;;;;;;;;5079843;28;20406;-68
2021/03/07 12:44:10;;;;;;;0.90;0.50;;;;;;;;;;5076125;28;20431;-69
2021/03/07 12:46:36;;;;;;;2.00;1.80;;;;;;;;;;5075250;28;20495;-69
2021/03/07 12:49:02;;;;;;;0.80;0.67;;;;;;;;;;5078971;28;20509;-69
2021/03/07 12:51:28;;;;;;;0.90;0.70;;;;;;;;;;5084349;28;20397;-69
2021/03/07 12:53:54;;;;;;;1.00;0.67;;;;;;;;;;5083402;28;20408;-71
2021/03/07 12:56:20;;;;;;;1.00;0.93;;;;;;;;;;5080659;28;20956;-70
2021/03/07 12:58:46;;;;;;;1.00;0.60;;;;;;;;;;5079114;28;20465;-70
2021/03/07 13:01:13;;;;;;;3.63;3.07;;;;;;;;;;5062246;28;21035;-69
2021/03/07 13:03:39;;;;;;;1.07;0.87;;;;;;;;;;5061004;28;20422;-69
2021/03/07 13:06:05;;;;;;;1.07;0.97;;;;;;;;;;5059380;28;20405;-69
2021/03/07 13:08:31;;;;;;;0.70;0.60;;;;;;;;;;5075581;28;20809;-69
2021/03/07 13:10:57;;;;;;;1.10;0.93;;;;;;;;;;5063702;28;20424;-69
2021/03/07 13:13:23;;;;;;;0.97;0.97;;;;;;;;;;5056764;28;20412;-70
2021/03/07 13:15:49;;;;;;;1.13;0.80;;;;;;;;;;5077086;28;20459;-69
2021/03/07 13:18:15;;;;;;;0.97;0.80;;;;;;;;;;5078467;28;20549;-70
2021/03/07 13:20:41;;;;;;;1.50;0.80;;;;;;;;;;5068475;28;20391;-70
2021/03/07 13:23:06;;;;;;;0.80;0.60;;;;;;;;;;5059223;28;20502;-70
2021/03/07 13:25:33;;;;;;;1.37;1.27;;;;;;;;;;5059543;28;20403;-70
2021/03/07 13:27:58;;;;;;;1.03;0.63;;;;;;;;;;5041573;28;20945;-70
2021/03/07 13:30:24;;;;;;;1.20;1.10;;;;;;;;;;5061548;28;20400;-70
2021/03/07 13:32:50;;;;;;;19.33;1.60;;;;;;;;;;5060567;28;20932;-70
2021/03/07 13:35:16;;;;;;;2.40;2.20;;;;;;;;;;5061787;28;20446;-70
2021/03/07 13:37:42;;;;;;;4.13;1.07;;;;;;;;;;5072958;28;20478;-70
2021/03/07 13:40:09;;;;;;;1.10;0.63;;;;;;;;;;5063196;28;20564;-69
2021/03/07 13:42:35;;;;;;;1.07;0.67;;;;;;;;;;5062302;28;20417;-61
2021/03/07 13:45:01;;;;;;;2.70;0.93;;;;;;;;;;5060387;28;20798;-69
2021/03/07 13:47:28;;;;;;;0.70;0.60;;;;;;;;;;5064953;28;20406;-69
2021/03/07 13:49:54;;;;;;;4.40;1.63;;;;;;;;;;5066664;28;20426;-70
2021/03/07 13:52:20;;;;;;;7.50;1.63;;;;;;;;;;5066400;28;20460;-70
2021/03/07 13:54:46;;;;;;;1.83;1.73;;;;;;;;;;5050147;28;20404;-70
2021/03/07 13:57:12;;;;;;;0.70;0.60;;;;;;;;;;5061897;28;20449;-70
2021/03/07 13:59:37;;;;;;;1.73;1.07;;;;;;;;;;5056698;28;20451;-70
2021/03/07 14:02:03;;;;;;;1.20;1.00;;;;;;;;;;5086650;28;20401;-70
2021/03/07 14:04:29;;;;;;;1.80;1.17;;;;;;;;;;5090538;28;20401;-69
2021/03/07 14:06:56;;;;;;;2.07;1.73;;;;;;;;;;5066907;28;20436;-70
2021/03/07 14:09:22;;;;;;;2.90;1.77;;;;;;;;;;5065893;28;20446;-70
2021/03/07 14:11:48;;;;;;;2.27;2.17;;;;;;;;;;5068113;28;20434;-70
2021/03/07 14:14:14;;;;;;;1.10;1.00;;;;;;;;;;5071098;28;20867;-70
2021/03/07 14:16:40;;;;;;;3.00;1.00;;;;;;;;;;5075029;28;20405;-70
2021/03/07 14:19:06;;;;;;;2.10;0.83;;;;;;;;;;5070270;28;20441;-68
2021/03/07 14:21:32;;;;;;;2.80;2.30;;;;;;;;;;5070425;28;20410;-68
2021/03/07 14:23:58;;;;;;;2.83;1.63;;;;;;;;;;5070052;28;20488;-71
2021/03/07 14:26:24;;;;;;;0.80;0.70;;;;;;;;;;5070339;28;20454;-70
2021/03/07 14:28:50;;;;;;;0.80;0.70;;;;;;;;;;5070036;28;20429;-68
2021/03/07 14:31:16;;;;;;;1.47;1.37;;;;;;;;;;5070423;28;20425;-69
2021/03/07 14:33:42;;;;;;;1.03;0.80;;;;;;;;;;5069838;28;20498;-69
2021/03/07 14:36:08;;;;;;;1.90;0.70;;;;;;;;;;5070409;28;20385;-69
2021/03/07 14:38:34;;;;;;;1.43;0.90;;;;;;;;;;5069733;28;20460;-69
2021/03/07 14:41:00;;;;;;;2.53;2.10;;;;;;;;;;5072104;28;20789;-68
2021/03/07 14:43:26;;;;;;;1.87;1.73;;;;;;;;;;5074053;28;20398;-68
2021/03/07 14:45:52;;;;;;;1.93;1.33;;;;;;;;;;5078723;28;20476;-68
2021/03/07 14:48:18;;;;;;;0.80;0.63;;;;;;;;;;5081682;28;20944;-68
2021/03/07 14:50:44;;;;;;;2.03;1.83;;;;;;;;;;5074060;28;20410;-69